Time;durP1;ratioP1;P1;durP2;ratioP2;P2;SDS_P1;SDS_P2;PMS_P1;PMS_P2;Temp;Humidity;BMP_temperature;BMP_pressure;BME280_temperature;BME280_humidity;BME280_pressure;Samples;Min_cycle;Max_cycle;Signal;HPM_P1;HPM_P2
2021/06/27 00:00:35;;;;;;;1.88;0.55;;;;;;;;;;5035120;28;20032;-64
2021/06/27 00:03:00;;;;;;;0.85;0.30;;;;;;;;;;5034959;28;20104;-63
2021/06/27 00:05:26;;;;;;;2.08;0.55;;;;;;;;;;5035003;28;20104;-63
2021/06/27 00:07:52;;;;;;;2.03;0.70;;;;;;;;;;5034877;28;20017;-64
2021/06/27 00:10:20;;;;;;;3.92;0.60;;;;;;;;;;5035005;28;20013;-63
2021/06/27 00:12:45;;;;;;;0.95;0.70;;;;;;;;;;5034882;28;20064;-63
2021/06/27 00:15:12;;;;;;;0.80;0.35;;;;;;;;;;5034771;28;20404;-64
2021/06/27 00:17:38;;;;;;;1.38;0.60;;;;;;;;;;5033618;28;20480;-63
2021/06/27 00:20:05;;;;;;;0.68;0.40;;;;;;;;;;5034652;28;20022;-64
2021/06/27 00:22:30;;;;;;;1.15;0.50;;;;;;;;;;5034565;28;20109;-63
2021/06/27 00:24:55;;;;;;;1.53;0.57;;;;;;;;;;5034348;28;20116;-63
2021/06/27 00:27:21;;;;;;;1.93;0.70;;;;;;;;;;5034642;28;20251;-64
2021/06/27 00:29:46;;;;;;;0.70;0.50;;;;;;;;;;5034584;28;20251;-64
2021/06/27 00:32:12;;;;;;;2.85;0.60;;;;;;;;;;5034689;28;20330;-64
2021/06/27 00:34:37;;;;;;;2.70;1.15;;;;;;;;;;5034130;28;20049;-64
2021/06/27 00:37:02;;;;;;;2.20;0.90;;;;;;;;;;5034344;28;20456;-64
2021/06/27 00:39:27;;;;;;;1.10;0.60;;;;;;;;;;5034404;28;20025;-64
2021/06/27 00:41:52;;;;;;;0.87;0.57;;;;;;;;;;5034205;28;20033;-64
2021/06/27 00:44:21;;;;;;;2.20;0.67;;;;;;;;;;5034316;28;20290;-64
2021/06/27 00:46:53;;;;;;;1.58;0.50;;;;;;;;;;5034201;28;20729;-64
2021/06/27 00:49:18;;;;;;;2.03;0.75;;;;;;;;;;5034217;28;20104;-65
2021/06/27 00:51:44;;;;;;;1.02;0.45;;;;;;;;;;5034474;28;20091;-64
2021/06/27 00:54:09;;;;;;;1.37;0.60;;;;;;;;;;5034023;28;20025;-65
2021/06/27 00:56:34;;;;;;;1.20;0.50;;;;;;;;;;5034520;28;20246;-65
2021/06/27 00:58:59;;;;;;;1.40;0.73;;;;;;;;;;5033850;28;20297;-65
2021/06/27 01:01:24;;;;;;;0.68;0.35;;;;;;;;;;5034069;28;20472;-64
2021/06/27 01:03:49;;;;;;;1.55;0.70;;;;;;;;;;5033730;28;20029;-65
2021/06/27 01:06:15;;;;;;;2.35;0.70;;;;;;;;;;5033968;28;20039;-64
2021/06/27 01:08:40;;;;;;;1.50;0.60;;;;;;;;;;5033869;28;20354;-65
2021/06/27 01:11:05;;;;;;;1.30;0.40;;;;;;;;;;5033977;28;20242;-64
2021/06/27 01:13:30;;;;;;;1.08;0.47;;;;;;;;;;5033872;28;20254;-66
2021/06/27 01:15:56;;;;;;;2.10;0.47;;;;;;;;;;5033560;28;20477;-64
2021/06/27 01:18:21;;;;;;;0.50;0.50;;;;;;;;;;5033707;28;20034;-65
2021/06/27 01:20:47;;;;;;;2.35;0.50;;;;;;;;;;5033505;28;20341;-65
2021/06/27 01:23:14;;;;;;;0.80;0.55;;;;;;;;;;5033436;28;20052;-65
2021/06/27 01:25:41;;;;;;;0.80;0.40;;;;;;;;;;5033375;28;20100;-65
2021/06/27 01:28:06;;;;;;;0.77;0.68;;;;;;;;;;5033361;28;20045;-65
2021/06/27 01:30:32;;;;;;;3.25;0.80;;;;;;;;;;5033472;28;20060;-65
2021/06/27 01:32:58;;;;;;;2.05;0.55;;;;;;;;;;5033186;28;20013;-65
2021/06/27 01:35:24;;;;;;;3.95;0.80;;;;;;;;;;5033429;28;20037;-66
2021/06/27 01:37:53;;;;;;;1.33;0.40;;;;;;;;;;5033136;28;20029;-64
2021/06/27 01:40:18;;;;;;;0.68;0.55;;;;;;;;;;5033309;28;20030;-65
2021/06/27 01:42:44;;;;;;;1.88;0.95;;;;;;;;;;5033229;28;20380;-65
2021/06/27 01:45:14;;;;;;;0.45;0.35;;;;;;;;;;5032256;28;20376;-66
2021/06/27 01:47:40;;;;;;;1.52;0.45;;;;;;;;;;5033031;28;20413;-65
2021/06/27 01:50:07;;;;;;;0.98;0.40;;;;;;;;;;5032967;28;20140;-65
2021/06/27 01:52:33;;;;;;;3.38;0.47;;;;;;;;;;5033173;28;20021;-66
2021/06/27 01:54:58;;;;;;;1.23;0.55;;;;;;;;;;5032885;28;20048;-65
2021/06/27 01:57:23;;;;;;;0.53;0.30;;;;;;;;;;5032989;28;20075;-65
2021/06/27 01:59:49;;;;;;;1.90;0.40;;;;;;;;;;5032818;28;20036;-65
2021/06/27 02:02:15;;;;;;;1.17;0.60;;;;;;;;;;5032843;28;20270;-66
2021/06/27 02:04:40;;;;;;;3.80;0.73;;;;;;;;;;5032805;28;20017;-66
2021/06/27 02:07:05;;;;;;;0.73;0.45;;;;;;;;;;5032688;28;20060;-64
2021/06/27 02:09:31;;;;;;;1.90;0.70;;;;;;;;;;5032957;28;20519;-65
2021/06/27 02:11:56;;;;;;;1.57;0.80;;;;;;;;;;5032615;28;20257;-66
2021/06/27 02:14:21;;;;;;;1.87;0.60;;;;;;;;;;5032765;28;20254;-66
2021/06/27 02:16:48;;;;;;;0.93;0.50;;;;;;;;;;5032615;28;20259;-65
2021/06/27 02:19:13;;;;;;;0.63;0.38;;;;;;;;;;5032677;28;20288;-62
2021/06/27 02:21:39;;;;;;;0.73;0.40;;;;;;;;;;5031441;28;20041;-63
2021/06/27 02:24:05;;;;;;;1.45;0.60;;;;;;;;;;5032181;28;20761;-63
2021/06/27 02:26:30;;;;;;;1.73;0.50;;;;;;;;;;5032623;28;20013;-62
2021/06/27 02:28:59;;;;;;;2.40;0.63;;;;;;;;;;5032395;28;20018;-62
2021/06/27 02:31:25;;;;;;;0.63;0.63;;;;;;;;;;5032504;28;20147;-62
2021/06/27 02:33:51;;;;;;;2.22;0.60;;;;;;;;;;5032224;28;20013;-62
2021/06/27 02:36:16;;;;;;;1.08;0.60;;;;;;;;;;5032495;28;20028;-62
2021/06/27 02:38:41;;;;;;;1.92;0.80;;;;;;;;;;5032349;28;20028;-61
2021/06/27 02:41:07;;;;;;;2.10;0.60;;;;;;;;;;5032349;28;20029;-62
2021/06/27 02:43:33;;;;;;;3.22;0.60;;;;;;;;;;5032441;28;20040;-62
2021/06/27 02:45:58;;;;;;;2.70;0.82;;;;;;;;;;5032102;28;20018;-62
2021/06/27 02:48:23;;;;;;;1.37;0.53;;;;;;;;;;5032340;28;20027;-63
2021/06/27 02:50:49;;;;;;;1.58;0.57;;;;;;;;;;5032109;28;20251;-62
2021/06/27 02:53:14;;;;;;;1.17;0.60;;;;;;;;;;5032336;28;20040;-61
2021/06/27 02:55:39;;;;;;;0.53;0.50;;;;;;;;;;5030966;28;20380;-61
2021/06/27 02:58:04;;;;;;;4.03;0.57;;;;;;;;;;5035299;28;20245;-62
2021/06/27 03:00:31;;;;;;;1.85;0.60;;;;;;;;;;5036306;28;20021;-62
2021/06/27 03:02:57;;;;;;;1.23;0.50;;;;;;;;;;5036110;28;20496;-61
2021/06/27 03:05:23;;;;;;;2.30;1.00;;;;;;;;;;5036093;28;20029;-62
2021/06/27 03:07:48;;;;;;;1.70;0.77;;;;;;;;;;5036006;28;20024;-62
2021/06/27 03:10:14;;;;;;;1.73;0.60;;;;;;;;;;5036103;28;20021;-61
2021/06/27 03:12:40;;;;;;;1.60;0.70;;;;;;;;;;5036020;28;20385;-63
2021/06/27 03:15:06;;;;;;;1.67;0.77;;;;;;;;;;5034591;28;20119;-62
2021/06/27 03:17:31;;;;;;;2.08;0.50;;;;;;;;;;5035785;28;20026;-62
2021/06/27 03:19:57;;;;;;;1.42;0.60;;;;;;;;;;5035788;28;20029;-61
2021/06/27 03:22:22;;;;;;;1.23;0.57;;;;;;;;;;5035661;28;20018;-61
2021/06/27 03:24:47;;;;;;;2.13;0.90;;;;;;;;;;5035662;28;20064;-62
2021/06/27 03:27:12;;;;;;;1.17;0.45;;;;;;;;;;5035664;28;20326;-61
2021/06/27 03:29:37;;;;;;;2.20;0.70;;;;;;;;;;5035805;28;20106;-62
2021/06/27 03:32:03;;;;;;;1.00;0.60;;;;;;;;;;5035565;28;20256;-61
2021/06/27 03:34:28;;;;;;;1.63;0.80;;;;;;;;;;5035585;28;20281;-61
2021/06/27 03:36:53;;;;;;;2.37;1.00;;;;;;;;;;5035464;28;20033;-62
2021/06/27 03:39:20;;;;;;;1.50;0.67;;;;;;;;;;5035668;28;20029;-62
2021/06/27 03:41:55;;;;;;;1.80;0.63;;;;;;;;;;5035456;28;20053;-61
2021/06/27 03:44:20;;;;;;;1.38;0.60;;;;;;;;;;5034164;28;20013;-61
2021/06/27 03:46:45;;;;;;;2.85;0.70;;;;;;;;;;5035362;28;20516;-62
2021/06/27 03:49:11;;;;;;;2.28;1.00;;;;;;;;;;5035330;28;20025;-62
2021/06/27 03:51:36;;;;;;;2.10;0.60;;;;;;;;;;5035398;28;20464;-62
2021/06/27 03:54:01;;;;;;;1.13;0.63;;;;;;;;;;5035208;28;20021;-62
2021/06/27 03:56:26;;;;;;;2.00;0.77;;;;;;;;;;5035300;28;20032;-61
2021/06/27 03:58:52;;;;;;;2.05;0.70;;;;;;;;;;5035020;28;20485;-62
2021/06/27 04:01:17;;;;;;;5.30;0.93;;;;;;;;;;5035137;28;20013;-62
2021/06/27 04:03:43;;;;;;;0.93;0.55;;;;;;;;;;5035079;28;20017;-62
2021/06/27 04:06:08;;;;;;;2.42;0.63;;;;;;;;;;5033683;28;20044;-61
2021/06/27 04:08:33;;;;;;;0.60;0.60;;;;;;;;;;5034240;28;20120;-61
2021/06/27 04:10:59;;;;;;;0.85;0.65;;;;;;;;;;5034852;28;20033;-62
2021/06/27 04:13:28;;;;;;;0.98;0.50;;;;;;;;;;5035083;28;20018;-61
2021/06/27 04:15:53;;;;;;;0.77;0.40;;;;;;;;;;5033540;28;20021;-60
2021/06/27 04:18:18;;;;;;;0.60;0.50;;;;;;;;;;5034925;28;20033;-61
2021/06/27 04:20:43;;;;;;;2.35;0.73;;;;;;;;;;5034839;28;20255;-62
2021/06/27 04:23:09;;;;;;;1.53;0.60;;;;;;;;;;5034325;28;20049;-61
2021/06/27 04:25:35;;;;;;;1.90;0.90;;;;;;;;;;5034716;28;20737;-61
2021/06/27 04:28:01;;;;;;;1.17;0.68;;;;;;;;;;5034855;28;20279;-61
2021/06/27 04:30:26;;;;;;;1.98;0.80;;;;;;;;;;5033362;28;20052;-61
2021/06/27 04:32:51;;;;;;;2.40;0.70;;;;;;;;;;5033411;28;20037;-60
2021/06/27 04:35:16;;;;;;;2.10;0.50;;;;;;;;;;5034594;28;20273;-60
2021/06/27 04:37:42;;;;;;;3.90;1.00;;;;;;;;;;5034477;28;20022;-61
2021/06/27 04:40:07;;;;;;;1.48;0.80;;;;;;;;;;5034338;28;20689;-61
2021/06/27 04:42:32;;;;;;;2.83;0.75;;;;;;;;;;5034483;28;20017;-60
2021/06/27 04:44:57;;;;;;;2.37;0.90;;;;;;;;;;5034119;28;20036;-60
2021/06/27 04:47:23;;;;;;;2.38;0.82;;;;;;;;;;5034340;28;20427;-61
2021/06/27 04:49:48;;;;;;;2.20;0.90;;;;;;;;;;5034160;28;20485;-61
2021/06/27 04:52:13;;;;;;;1.55;0.63;;;;;;;;;;5034515;28;20072;-62
2021/06/27 04:54:38;;;;;;;1.70;0.70;;;;;;;;;;5034198;28;20366;-61
2021/06/27 04:57:04;;;;;;;3.37;1.00;;;;;;;;;;5034307;28;20021;-61
2021/06/27 04:59:29;;;;;;;3.45;1.00;;;;;;;;;;5034168;28;20357;-61
2021/06/27 05:01:54;;;;;;;2.05;0.90;;;;;;;;;;5033859;28;20029;-61
2021/06/27 05:04:20;;;;;;;5.43;0.70;;;;;;;;;;5033952;28;20112;-63
2021/06/27 05:06:45;;;;;;;1.90;0.60;;;;;;;;;;5034210;28;20104;-64
2021/06/27 05:09:10;;;;;;;1.63;0.60;;;;;;;;;;5033856;28;20017;-64
2021/06/27 05:11:35;;;;;;;1.35;0.80;;;;;;;;;;5033904;28;20033;-64
2021/06/27 05:14:00;;;;;;;1.87;0.93;;;;;;;;;;5033667;28;20453;-63
2021/06/27 05:16:26;;;;;;;2.30;1.05;;;;;;;;;;5033768;28;20021;-65
2021/06/27 05:18:51;;;;;;;1.75;0.65;;;;;;;;;;5033517;28;20018;-64
2021/06/27 05:21:16;;;;;;;0.52;0.50;;;;;;;;;;5033730;28;20061;-64
2021/06/27 05:23:41;;;;;;;1.45;0.93;;;;;;;;;;5033413;28;20046;-63
2021/06/27 05:26:07;;;;;;;1.77;0.60;;;;;;;;;;5033421;28;20029;-65
2021/06/27 05:28:32;;;;;;;2.38;0.77;;;;;;;;;;5033872;28;20026;-64
2021/06/27 05:30:57;;;;;;;0.63;0.50;;;;;;;;;;5033264;28;20445;-64
2021/06/27 05:33:22;;;;;;;0.68;0.50;;;;;;;;;;5033506;28;20029;-64
2021/06/27 05:35:48;;;;;;;1.63;0.50;;;;;;;;;;5033232;28;20029;-65
2021/06/27 05:38:13;;;;;;;2.60;0.80;;;;;;;;;;5032073;28;20556;-65
2021/06/27 05:40:39;;;;;;;2.45;0.77;;;;;;;;;;5033392;28;20068;-64
2021/06/27 05:43:04;;;;;;;3.90;1.00;;;;;;;;;;5033176;28;20416;-65
2021/06/27 05:45:29;;;;;;;3.75;0.80;;;;;;;;;;5033493;28;20029;-65
2021/06/27 05:47:54;;;;;;;3.58;0.93;;;;;;;;;;5033036;28;20017;-64
2021/06/27 05:50:21;;;;;;;2.63;1.00;;;;;;;;;;5033167;28;20060;-64
2021/06/27 05:52:46;;;;;;;1.25;0.60;;;;;;;;;;5033040;28;20258;-65
2021/06/27 05:55:12;;;;;;;1.33;0.55;;;;;;;;;;5033061;28;20018;-65
2021/06/27 05:57:37;;;;;;;3.65;0.98;;;;;;;;;;5033032;28;20032;-65
2021/06/27 06:00:04;;;;;;;1.37;0.70;;;;;;;;;;5032885;28;20460;-64
2021/06/27 06:02:29;;;;;;;2.22;0.90;;;;;;;;;;5032966;28;20250;-64
2021/06/27 06:04:54;;;;;;;1.88;0.70;;;;;;;;;;5032752;28;20460;-65
2021/06/27 06:07:19;;;;;;;2.22;1.08;;;;;;;;;;5032895;28;20026;-65
2021/06/27 06:09:44;;;;;;;1.42;0.70;;;;;;;;;;5032829;28;20033;-64
2021/06/27 06:12:09;;;;;;;1.65;0.85;;;;;;;;;;5032700;28;20461;-64
2021/06/27 06:14:35;;;;;;;2.45;0.70;;;;;;;;;;5032834;28;20476;-64
2021/06/27 06:17:00;;;;;;;1.90;0.90;;;;;;;;;;5032660;28;20056;-64
2021/06/27 06:19:25;;;;;;;1.27;0.70;;;;;;;;;;5032716;28;20298;-64
2021/06/27 06:21:50;;;;;;;1.63;0.80;;;;;;;;;;5032520;28;20247;-64
2021/06/27 06:24:16;;;;;;;3.95;0.93;;;;;;;;;;5032427;28;20480;-65
2021/06/27 06:26:41;;;;;;;2.88;1.05;;;;;;;;;;5032558;28;20100;-65
2021/06/27 06:29:06;;;;;;;1.92;0.82;;;;;;;;;;5032502;28;20389;-64
2021/06/27 06:31:32;;;;;;;1.40;0.60;;;;;;;;;;5032123;28;20025;-65
2021/06/27 06:33:57;;;;;;;3.03;0.90;;;;;;;;;;5032432;28;20017;-65
2021/06/27 06:36:22;;;;;;;1.90;1.00;;;;;;;;;;5032505;28;20028;-64
2021/06/27 06:38:47;;;;;;;2.00;0.80;;;;;;;;;;5032649;28;20571;-64
2021/06/27 06:41:12;;;;;;;2.97;1.10;;;;;;;;;;5032448;28;20286;-65
2021/06/27 06:43:38;;;;;;;2.43;0.77;;;;;;;;;;5032451;28;20242;-65
2021/06/27 06:46:03;;;;;;;1.90;0.63;;;;;;;;;;5032206;28;20365;-64
2021/06/27 06:48:28;;;;;;;2.60;0.77;;;;;;;;;;5032633;28;20297;-64
2021/06/27 06:50:53;;;;;;;1.97;0.83;;;;;;;;;;5032227;28;20022;-66
2021/06/27 06:53:19;;;;;;;3.70;1.00;;;;;;;;;;5032300;28;20311;-65
2021/06/27 06:55:44;;;;;;;2.25;0.75;;;;;;;;;;5032305;28;20125;-65
2021/06/27 06:58:09;;;;;;;2.40;1.00;;;;;;;;;;5032184;28;20376;-65
2021/06/27 07:00:34;;;;;;;2.50;0.80;;;;;;;;;;5032631;28;20053;-64
2021/06/27 07:02:59;;;;;;;1.30;0.50;;;;;;;;;;5032100;28;20071;-65
2021/06/27 07:05:25;;;;;;;2.57;0.63;;;;;;;;;;5032193;28;20018;-65
2021/06/27 07:07:50;;;;;;;0.93;0.50;;;;;;;;;;5032008;28;20250;-65
2021/06/27 07:10:15;;;;;;;3.60;0.90;;;;;;;;;;5032204;28;20060;-65
2021/06/27 07:12:41;;;;;;;2.53;0.88;;;;;;;;;;5032142;28;20037;-65
2021/06/27 07:15:07;;;;;;;1.10;0.60;;;;;;;;;;5032030;28;20048;-65
2021/06/27 07:17:32;;;;;;;1.23;0.65;;;;;;;;;;5031919;28;20362;-65
2021/06/27 07:19:57;;;;;;;1.93;0.70;;;;;;;;;;5031937;28;20255;-65
2021/06/27 07:22:23;;;;;;;3.50;1.07;;;;;;;;;;5031896;28;20262;-65
2021/06/27 07:24:48;;;;;;;0.90;0.50;;;;;;;;;;5031781;28;20290;-66
2021/06/27 07:27:13;;;;;;;1.00;0.60;;;;;;;;;;5032023;28;20017;-65
2021/06/27 07:29:38;;;;;;;2.13;0.43;;;;;;;;;;5031986;28;20499;-65
2021/06/27 07:32:04;;;;;;;1.37;0.73;;;;;;;;;;5032089;28;20247;-65
2021/06/27 07:34:29;;;;;;;2.88;0.75;;;;;;;;;;5032014;28;20708;-66
2021/06/27 07:36:54;;;;;;;1.42;0.47;;;;;;;;;;5031783;28;20025;-65
2021/06/27 07:39:20;;;;;;;2.03;0.75;;;;;;;;;;5032235;28;20515;-65
2021/06/27 07:41:45;;;;;;;1.67;0.82;;;;;;;;;;5031842;28;20021;-65
2021/06/27 07:44:10;;;;;;;1.25;0.60;;;;;;;;;;5033242;28;20541;-66
2021/06/27 07:46:35;;;;;;;1.45;0.60;;;;;;;;;;5035553;28;20017;-64
2021/06/27 07:49:00;;;;;;;1.77;0.60;;;;;;;;;;5035381;28;20026;-66
2021/06/27 07:51:26;;;;;;;2.97;0.83;;;;;;;;;;5035433;28;20247;-66
2021/06/27 07:53:51;;;;;;;2.20;1.00;;;;;;;;;;5035226;28;20716;-65
2021/06/27 07:56:16;;;;;;;2.58;0.50;;;;;;;;;;5035299;28;20337;-65
2021/06/27 07:58:41;;;;;;;1.45;0.77;;;;;;;;;;5035243;28;20068;-66
2021/06/27 08:01:07;;;;;;;2.20;0.60;;;;;;;;;;5033726;28;20021;-66
2021/06/27 08:03:32;;;;;;;2.53;0.80;;;;;;;;;;5035045;28;20278;-66
2021/06/27 08:05:57;;;;;;;2.15;0.75;;;;;;;;;;5034954;28;20044;-64
2021/06/27 08:08:22;;;;;;;0.50;0.30;;;;;;;;;;5035090;28;20096;-65
2021/06/27 08:10:47;;;;;;;2.20;0.60;;;;;;;;;;5034971;28;20346;-66
2021/06/27 08:13:13;;;;;;;1.60;0.70;;;;;;;;;;5035014;28;20282;-65
2021/06/27 08:15:38;;;;;;;1.43;0.53;;;;;;;;;;5034972;28;20300;-64
2021/06/27 08:18:03;;;;;;;1.83;0.75;;;;;;;;;;5034800;28;20255;-65
2021/06/27 08:20:29;;;;;;;2.25;0.80;;;;;;;;;;5034882;28;20022;-66
2021/06/27 08:22:55;;;;;;;1.63;0.70;;;;;;;;;;5034501;28;20034;-65
2021/06/27 08:25:20;;;;;;;2.47;0.70;;;;;;;;;;5034466;28;20029;-65
2021/06/27 08:27:46;;;;;;;3.30;1.05;;;;;;;;;;5034669;28;20014;-66
2021/06/27 08:30:12;;;;;;;1.67;0.70;;;;;;;;;;5034521;28;20018;-65
2021/06/27 08:32:42;;;;;;;2.08;0.70;;;;;;;;;;5034932;28;20030;-65
2021/06/27 08:35:08;;;;;;;0.50;0.40;;;;;;;;;;5034462;28;20057;-64
2021/06/27 08:37:33;;;;;;;2.83;1.00;;;;;;;;;;5034567;28;20428;-66
2021/06/27 08:39:58;;;;;;;1.67;0.70;;;;;;;;;;5034337;28;20044;-66
2021/06/27 08:42:23;;;;;;;3.33;0.93;;;;;;;;;;5034492;28;20029;-65
2021/06/27 08:44:49;;;;;;;1.50;0.40;;;;;;;;;;5034483;28;20281;-65
2021/06/27 08:47:14;;;;;;;1.25;0.40;;;;;;;;;;5034317;28;20341;-66
2021/06/27 08:49:40;;;;;;;0.60;0.40;;;;;;;;;;5034300;28;20052;-66
2021/06/27 08:52:05;;;;;;;1.27;0.50;;;;;;;;;;5034166;28;20030;-64
2021/06/27 08:54:31;;;;;;;1.90;0.77;;;;;;;;;;5034245;28;20025;-64
2021/06/27 08:56:56;;;;;;;1.48;0.65;;;;;;;;;;5034030;28;20028;-64
2021/06/27 08:59:21;;;;;;;1.60;0.70;;;;;;;;;;5034119;28;20021;-66
2021/06/27 09:01:46;;;;;;;1.40;0.93;;;;;;;;;;5034014;28;20233;-65
2021/06/27 09:04:14;;;;;;;1.45;0.60;;;;;;;;;;5033869;28;20412;-65
2021/06/27 09:06:40;;;;;;;0.98;0.40;;;;;;;;;;5033970;28;20067;-64
2021/06/27 09:09:08;;;;;;;2.63;1.05;;;;;;;;;;5033783;28;20056;-65
2021/06/27 09:11:33;;;;;;;1.75;0.50;;;;;;;;;;5033943;28;20025;-64
2021/06/27 09:13:58;;;;;;;1.50;0.60;;;;;;;;;;5033671;28;20018;-65
2021/06/27 09:16:24;;;;;;;1.48;0.55;;;;;;;;;;5033791;28;20063;-64
2021/06/27 09:18:50;;;;;;;3.38;0.93;;;;;;;;;;5033644;28;20021;-65
2021/06/27 09:21:15;;;;;;;1.75;0.50;;;;;;;;;;5033694;28;20018;-64
2021/06/27 09:23:42;;;;;;;1.05;0.60;;;;;;;;;;5032139;28;20052;-64
2021/06/27 09:26:08;;;;;;;2.90;0.88;;;;;;;;;;5033370;28;20029;-65
2021/06/27 09:28:40;;;;;;;2.33;0.68;;;;;;;;;;5033926;28;20342;-65
2021/06/27 09:31:06;;;;;;;2.08;0.70;;;;;;;;;;5033360;28;20024;-65
2021/06/27 09:33:31;;;;;;;0.98;0.50;;;;;;;;;;5033579;28;20017;-64
2021/06/27 09:35:57;;;;;;;1.50;0.70;;;;;;;;;;5033270;28;20036;-65
2021/06/27 09:38:26;;;;;;;1.40;0.35;;;;;;;;;;5032128;28;20026;-66
2021/06/27 09:40:52;;;;;;;2.45;0.73;;;;;;;;;;5033199;28;20036;-65
2021/06/27 09:43:19;;;;;;;0.80;0.40;;;;;;;;;;5033367;28;20025;-64
2021/06/27 09:45:45;;;;;;;2.50;0.40;;;;;;;;;;5033170;28;20052;-65
2021/06/27 09:48:10;;;;;;;1.50;0.57;;;;;;;;;;5033401;28;20009;-65
2021/06/27 09:50:36;;;;;;;0.95;0.40;;;;;;;;;;5033268;28;20092;-65
2021/06/27 09:53:01;;;;;;;1.02;0.63;;;;;;;;;;5032986;28;20079;-64
2021/06/27 09:55:26;;;;;;;1.50;0.60;;;;;;;;;;5033086;28;20017;-66
2021/06/27 09:58:11;;;;;;;1.10;0.63;;;;;;;;;;5032898;28;20250;-66
2021/06/27 10:00:39;;;;;;;2.25;0.82;;;;;;;;;;5033055;28;20464;-65
2021/06/27 10:03:04;;;;;;;1.70;0.93;;;;;;;;;;5032796;28;20021;-66
2021/06/27 10:05:30;;;;;;;1.05;0.40;;;;;;;;;;5032921;28;20043;-64
2021/06/27 10:07:55;;;;;;;3.33;0.75;;;;;;;;;;5032108;28;20018;-66
2021/06/27 10:10:21;;;;;;;0.65;0.50;;;;;;;;;;5032835;28;20024;-65
2021/06/27 10:12:46;;;;;;;3.75;0.75;;;;;;;;;;5032714;28;20460;-65
2021/06/27 10:15:14;;;;;;;1.47;0.60;;;;;;;;;;5032694;28;20276;-64
2021/06/27 10:17:39;;;;;;;1.00;0.50;;;;;;;;;;5032726;28;20532;-66
2021/06/27 10:20:05;;;;;;;1.35;0.50;;;;;;;;;;5032543;28;20105;-65
2021/06/27 10:22:31;;;;;;;1.00;0.55;;;;;;;;;;5040343;22;20029;-65
2021/06/27 10:24:56;;;;;;;2.22;1.00;;;;;;;;;;5031319;28;20168;-65
2021/06/27 10:27:23;;;;;;;1.50;0.77;;;;;;;;;;5032845;28;20045;-65
2021/06/27 10:29:49;;;;;;;2.42;0.85;;;;;;;;;;5032404;28;20092;-65
2021/06/27 10:32:16;;;;;;;1.45;0.57;;;;;;;;;;5032565;28;20421;-65
2021/06/27 10:34:41;;;;;;;1.20;0.52;;;;;;;;;;5032476;28;20493;-66
2021/06/27 10:37:12;;;;;;;2.15;0.45;;;;;;;;;;5032387;28;20034;-66
2021/06/27 10:39:37;;;;;;;1.42;0.70;;;;;;;;;;5032573;28;20024;-66
2021/06/27 10:42:04;;;;;;;1.63;0.57;;;;;;;;;;5032341;28;20030;-65
2021/06/27 10:44:49;;;;;;;0.88;0.50;;;;;;;;;;5031111;28;20053;-65
2021/06/27 10:47:34;;;;;;;1.92;0.70;;;;;;;;;;5032245;28;20115;-66
2021/06/27 10:49:59;;;;;;;;;;;;;;;;;;5032735;28;20017;-66
2021/06/27 10:52:24;;;;;;;1.42;0.70;;;;;;;;;;5032432;28;19915;-66
2021/06/27 10:55:22;;;;;;;0.70;0.50;;;;;;;;;;5030923;28;20116;-64
2021/06/27 10:58:07;;;;;;;0.73;0.40;;;;;;;;;;4970974;28;20132;-64
2021/06/27 11:00:52;;;;;;;2.35;0.60;;;;;;;;;;4971178;28;20058;-65
2021/06/27 11:03:28;;;;;;;0.88;0.65;;;;;;;;;;4971217;28;20386;-66
2021/06/27 11:05:56;;;;;;;2.08;0.88;;;;;;;;;;4970859;28;20058;-66
2021/06/27 11:08:48;;;;;;;2.00;0.50;;;;;;;;;;4971107;28;20031;-65
2021/06/27 11:11:15;;;;;;;2.08;0.70;;;;;;;;;;4968617;28;20401;-64
2021/06/27 11:13:41;;;;;;;2.03;0.80;;;;;;;;;;4971000;28;20490;-64
2021/06/27 11:16:07;;;;;;;1.88;0.70;;;;;;;;;;4970943;28;20035;-65
2021/06/27 11:18:36;;;;;;;1.65;0.70;;;;;;;;;;4973139;28;20444;-65
2021/06/27 11:21:03;;;;;;;0.75;0.30;;;;;;;;;;4974559;28;20038;-65
2021/06/27 11:23:47;;;;;;;0.60;0.40;;;;;;;;;;4974589;28;20094;-64
2021/06/27 11:26:31;;;;;;;0.75;0.38;;;;;;;;;;4974555;28;20756;-65
2021/06/27 11:28:56;;;;;;;1.50;0.70;;;;;;;;;;4974403;28;20033;-66
2021/06/27 11:31:21;;;;;;;3.33;0.70;;;;;;;;;;4974594;28;20023;-66
2021/06/27 11:34:06;;;;;;;1.67;0.60;;;;;;;;;;5014731;28;20110;-64
2021/06/27 11:36:31;;;;;;;1.92;0.60;;;;;;;;;;5035556;28;20057;-66
2021/06/27 11:38:56;;;;;;;1.73;0.83;;;;;;;;;;5035511;28;20056;-66
2021/06/27 11:41:22;;;;;;;1.30;0.40;;;;;;;;;;5035677;28;20246;-66
2021/06/27 11:44:00;;;;;;;1.80;0.68;;;;;;;;;;5035461;28;20289;-65
2021/06/27 11:46:25;;;;;;;0.90;0.52;;;;;;;;;;5035431;28;20022;-65
2021/06/27 11:48:50;;;;;;;1.38;0.52;;;;;;;;;;5035326;28;20029;-65
2021/06/27 11:51:16;;;;;;;2.50;0.70;;;;;;;;;;5035512;28;20014;-67
2021/06/27 11:53:41;;;;;;;1.42;0.70;;;;;;;;;;5034007;28;20020;-66
2021/06/27 11:56:08;;;;;;;0.90;0.43;;;;;;;;;;5035214;28;20017;-66
2021/06/27 11:58:34;;;;;;;1.52;0.63;;;;;;;;;;5035352;28;20067;-65
2021/06/27 12:01:04;;;;;;;1.27;0.70;;;;;;;;;;5035043;28;20171;-65
2021/06/27 12:03:29;;;;;;;2.15;0.80;;;;;;;;;;5034794;28;20075;-65
2021/06/27 12:05:56;;;;;;;2.33;1.00;;;;;;;;;;5034629;28;20483;-65
2021/06/27 12:08:22;;;;;;;1.67;0.57;;;;;;;;;;5034280;28;20448;-64
2021/06/27 12:10:52;;;;;;;3.45;0.77;;;;;;;;;;5034903;28;20411;-64
2021/06/27 12:13:18;;;;;;;2.30;0.93;;;;;;;;;;5030578;28;20013;-66
2021/06/27 12:15:46;;;;;;;1.42;0.50;;;;;;;;;;5021850;28;20026;-66
2021/06/27 12:18:19;;;;;;;1.20;0.70;;;;;;;;;;5022681;28;20021;-64
2021/06/27 12:20:54;;;;;;;1.95;0.60;;;;;;;;;;5029689;28;20021;-64
2021/06/27 12:23:22;;;;;;;1.23;0.52;;;;;;;;;;5026031;28;20053;-64
2021/06/27 12:25:52;;;;;;;1.73;0.93;;;;;;;;;;5033316;28;20390;-65
2021/06/27 12:28:17;;;;;;;2.63;0.52;;;;;;;;;;5034629;28;20025;-65
2021/06/27 12:30:44;;;;;;;2.43;0.80;;;;;;;;;;5033878;28;20017;-64
2021/06/27 12:33:11;;;;;;;1.02;0.73;;;;;;;;;;5034587;28;20341;-65
2021/06/27 12:35:39;;;;;;;2.28;0.60;;;;;;;;;;5034640;28;20056;-64
2021/06/27 12:38:04;;;;;;;1.73;0.35;;;;;;;;;;5034476;28;20112;-64
2021/06/27 12:40:30;;;;;;;2.53;0.73;;;;;;;;;;5034559;28;20060;-64
2021/06/27 12:42:55;;;;;;;2.10;0.80;;;;;;;;;;5034335;28;20036;-65
2021/06/27 12:45:21;;;;;;;1.63;0.77;;;;;;;;;;5034354;28;20025;-64
2021/06/27 12:47:46;;;;;;;0.70;0.40;;;;;;;;;;5034291;28;20017;-64
2021/06/27 12:50:11;;;;;;;1.35;0.65;;;;;;;;;;5034274;28;20068;-64
2021/06/27 12:52:37;;;;;;;3.55;0.90;;;;;;;;;;5034290;28;20049;-65
2021/06/27 12:55:09;;;;;;;1.58;0.73;;;;;;;;;;5033936;28;20029;-64
2021/06/27 12:57:34;;;;;;;2.35;0.73;;;;;;;;;;5034234;28;20018;-64
2021/06/27 12:59:59;;;;;;;1.52;0.60;;;;;;;;;;5033994;28;20029;-64
2021/06/27 13:02:29;;;;;;;2.17;0.67;;;;;;;;;;5034096;28;20075;-65
2021/06/27 13:05:13;;;;;;;2.10;0.80;;;;;;;;;;5033768;28;20283;-64
2021/06/27 13:07:41;;;;;;;2.20;0.80;;;;;;;;;;5034026;28;20045;-64
2021/06/27 13:10:08;;;;;;;1.10;0.73;;;;;;;;;;5033820;28;20022;-64
2021/06/27 13:12:36;;;;;;;2.03;0.60;;;;;;;;;;5033975;28;20021;-65
2021/06/27 13:15:09;;;;;;;2.15;0.60;;;;;;;;;;5033752;28;20032;-64
2021/06/27 13:17:50;;;;;;;1.20;0.63;;;;;;;;;;5033873;28;20021;-64
2021/06/27 13:20:19;;;;;;;1.33;0.70;;;;;;;;;;5033800;28;20138;-64
2021/06/27 13:23:03;;;;;;;1.95;0.85;;;;;;;;;;5033451;28;20415;-66
2021/06/27 13:25:48;;;;;;;1.88;0.60;;;;;;;;;;5033920;28;20498;-65
2021/06/27 13:28:14;;;;;;;2.08;0.70;;;;;;;;;;5032599;28;20056;-64
2021/06/27 13:30:43;;;;;;;2.95;1.10;;;;;;;;;;5032283;28;20052;-64
2021/06/27 13:33:09;;;;;;;4.30;1.08;;;;;;;;;;5033658;28;20372;-64
2021/06/27 13:35:36;;;;;;;0.52;0.35;;;;;;;;;;5033518;28;20017;-65
2021/06/27 13:38:05;;;;;;;2.22;0.85;;;;;;;;;;5033276;28;20021;-64
2021/06/27 13:40:31;;;;;;;1.27;0.47;;;;;;;;;;5031895;28;20091;-64
2021/06/27 13:42:56;;;;;;;1.77;0.70;;;;;;;;;;5032456;28;20456;-64
2021/06/27 13:45:22;;;;;;;2.00;0.75;;;;;;;;;;5033235;28;20021;-65
2021/06/27 13:47:52;;;;;;;1.38;0.70;;;;;;;;;;5033162;28;20434;-65
2021/06/27 13:50:17;;;;;;;2.92;0.90;;;;;;;;;;5033254;28;20481;-65
2021/06/27 13:52:43;;;;;;;1.83;0.68;;;;;;;;;;5033184;28;20048;-64
2021/06/27 13:55:08;;;;;;;1.58;0.65;;;;;;;;;;5032993;28;20025;-65
2021/06/27 13:57:34;;;;;;;1.35;0.68;;;;;;;;;;5033190;28;20028;-65
2021/06/27 13:59:59;;;;;;;2.90;0.93;;;;;;;;;;5033429;28;20028;-65
2021/06/27 14:02:24;;;;;;;2.03;0.70;;;;;;;;;;5032945;28;20036;-64
2021/06/27 14:04:49;;;;;;;1.90;0.68;;;;;;;;;;5032730;28;20029;-64
2021/06/27 14:07:16;;;;;;;1.75;0.82;;;;;;;;;;5032958;28;20033;-65
2021/06/27 14:09:41;;;;;;;1.73;0.70;;;;;;;;;;5032870;28;20029;-65
2021/06/27 14:12:06;;;;;;;2.33;0.95;;;;;;;;;;5032984;28;20044;-64
2021/06/27 14:14:32;;;;;;;1.60;0.77;;;;;;;;;;5032869;28;20017;-63
2021/06/27 14:16:57;;;;;;;1.93;0.90;;;;;;;;;;5032576;28;20052;-65
2021/06/27 14:19:22;;;;;;;3.17;0.83;;;;;;;;;;5032768;28;20728;-65
2021/06/27 14:21:49;;;;;;;0.67;0.50;;;;;;;;;;5032635;28;20032;-65
2021/06/27 14:24:15;;;;;;;1.95;0.60;;;;;;;;;;5032504;28;20045;-64
2021/06/27 14:26:40;;;;;;;0.82;0.63;;;;;;;;;;5033110;28;20105;-66
2021/06/27 14:29:08;;;;;;;2.60;0.93;;;;;;;;;;5032457;28;20372;-65
2021/06/27 14:31:34;;;;;;;1.58;1.13;;;;;;;;;;5032575;28;20258;-64
2021/06/27 14:34:00;;;;;;;2.28;0.45;;;;;;;;;;5032389;28;20025;-65
2021/06/27 14:36:26;;;;;;;2.83;1.08;;;;;;;;;;5032470;28;20483;-65
2021/06/27 14:38:51;;;;;;;1.65;0.70;;;;;;;;;;5031038;28;20025;-66